<?xml version="1.0" encoding="utf-8"?>
<gpx xmlns:xsi="http://www.w3.org/2001/XMLSchema-instance" xmlns:xsd="http://www.w3.org/2001/XMLSchema" version="1.1" creator="Shapelink.com" xmlns="http://www.topografix.com/GPX/1/1" xmlns:gpxtpx="http://www.garmin.com/xmlschemas/TrackPointExtension/v1">
  <metadata>
    <name>Övrigt 3.23 km, 2019-07-20</name>
    <desc></desc>
    <author><name>Marian Moron</name></author> 
    <time>2019-07-20T19:40:28Z</time>
  </metadata>
  <trk>
    <name>Övrigt 3.23 km, 2019-07-20</name>
    <trkseg>
      <trkpt lat="51.2298039964" lon="4.458174695004">
        <ele>0</ele>
        <time>2019-07-20T19:40:28Z</time>
      </trkpt>
      <trkpt lat="51.229909524521" lon="4.458034381998">
        <ele>7.6</ele>
        <time>2019-07-20T19:40:45Z</time>
      </trkpt>
      <trkpt lat="51.230031648804" lon="4.458727481309">
        <ele>3.6</ele>
        <time>2019-07-20T19:41:34Z</time>
      </trkpt>
      <trkpt lat="51.230086550249" lon="4.458913224213">
        <ele>1.8</ele>
        <time>2019-07-20T19:41:50Z</time>
      </trkpt>
      <trkpt lat="51.230200544089" lon="4.458996875575">
        <ele>1.2</ele>
        <time>2019-07-20T19:42:25Z</time>
      </trkpt>
      <trkpt lat="51.23031613049" lon="4.458930407108">
        <ele>1.4</ele>
        <time>2019-07-20T19:42:34Z</time>
      </trkpt>
      <trkpt lat="51.230354351954" lon="4.458902746838">
        <ele>1</ele>
        <time>2019-07-20T19:42:40Z</time>
      </trkpt>
      <trkpt lat="51.230405230087" lon="4.458888749065">
        <ele>0.8</ele>
        <time>2019-07-20T19:42:44Z</time>
      </trkpt>
      <trkpt lat="51.230460969722" lon="4.458927641081">
        <ele>0.4</ele>
        <time>2019-07-20T19:42:49Z</time>
      </trkpt>
      <trkpt lat="51.230481086282" lon="4.458925042692">
        <ele>0</ele>
        <time>2019-07-20T19:42:59Z</time>
      </trkpt>
      <trkpt lat="51.230543615256" lon="4.45932921791">
        <ele>1.2</ele>
        <time>2019-07-20T19:43:24Z</time>
      </trkpt>
      <trkpt lat="51.230645706798" lon="4.459682850271">
        <ele>3.6</ele>
        <time>2019-07-20T19:43:47Z</time>
      </trkpt>
      <trkpt lat="51.23078300232" lon="4.459689891067">
        <ele>3.4</ele>
        <time>2019-07-20T19:44:08Z</time>
      </trkpt>
      <trkpt lat="51.23084921933" lon="4.459645969911">
        <ele>3.6</ele>
        <time>2019-07-20T19:44:16Z</time>
      </trkpt>
      <trkpt lat="51.231293208573" lon="4.459587715706">
        <ele>2.2</ele>
        <time>2019-07-20T19:44:53Z</time>
      </trkpt>
      <trkpt lat="51.231712052116" lon="4.459725430323">
        <ele>0</ele>
        <time>2019-07-20T19:45:28Z</time>
      </trkpt>
      <trkpt lat="51.231818669884" lon="4.459744289598">
        <ele>1</ele>
        <time>2019-07-20T19:45:36Z</time>
      </trkpt>
      <trkpt lat="51.231964682582" lon="4.460275031506">
        <ele>0</ele>
        <time>2019-07-20T19:46:16Z</time>
      </trkpt>
      <trkpt lat="51.232024026434" lon="4.460646768771">
        <ele>4.2</ele>
        <time>2019-07-20T19:46:40Z</time>
      </trkpt>
      <trkpt lat="51.232058056948" lon="4.460869643492">
        <ele>5.2</ele>
        <time>2019-07-20T19:46:53Z</time>
      </trkpt>
      <trkpt lat="51.232187305846" lon="4.461552349247">
        <ele>3.4</ele>
        <time>2019-07-20T19:47:33Z</time>
      </trkpt>
      <trkpt lat="51.232202225628" lon="4.4619032994">
        <ele>11.8</ele>
        <time>2019-07-20T19:47:58Z</time>
      </trkpt>
      <trkpt lat="51.232287721008" lon="4.46250009068">
        <ele>15.6</ele>
        <time>2019-07-20T19:48:35Z</time>
      </trkpt>
      <trkpt lat="51.23236382866" lon="4.462835785775">
        <ele>18.6</ele>
        <time>2019-07-20T19:48:59Z</time>
      </trkpt>
      <trkpt lat="51.232388303808" lon="4.462948438511">
        <ele>20.8</ele>
        <time>2019-07-20T19:49:06Z</time>
      </trkpt>
      <trkpt lat="51.232405486703" lon="4.463129990465">
        <ele>19.4</ele>
        <time>2019-07-20T19:49:18Z</time>
      </trkpt>
      <trkpt lat="51.232550158297" lon="4.463827951278">
        <ele>7</ele>
        <time>2019-07-20T19:49:56Z</time>
      </trkpt>
      <trkpt lat="51.232515205774" lon="4.464067757437">
        <ele>3.8</ele>
        <time>2019-07-20T19:50:46Z</time>
      </trkpt>
      <trkpt lat="51.232428117833" lon="4.464263139526">
        <ele>1.4</ele>
        <time>2019-07-20T19:51:00Z</time>
      </trkpt>
      <trkpt lat="51.232254947779" lon="4.464927405101">
        <ele>1</ele>
        <time>2019-07-20T19:51:33Z</time>
      </trkpt>
      <trkpt lat="51.232244554223" lon="4.46493922358">
        <ele>0.4</ele>
        <time>2019-07-20T19:51:34Z</time>
      </trkpt>
      <trkpt lat="51.231953283198" lon="4.465509444237">
        <ele>2.4</ele>
        <time>2019-07-20T19:52:10Z</time>
      </trkpt>
      <trkpt lat="51.231696126506" lon="4.466114952693">
        <ele>3.6</ele>
        <time>2019-07-20T19:52:48Z</time>
      </trkpt>
      <trkpt lat="51.231418601797" lon="4.466690705404">
        <ele>4.2</ele>
        <time>2019-07-20T19:53:25Z</time>
      </trkpt>
      <trkpt lat="51.23129513641" lon="4.466948700286">
        <ele>2.8</ele>
        <time>2019-07-20T19:53:41Z</time>
      </trkpt>
      <trkpt lat="51.231196816723" lon="4.467152799551">
        <ele>2.6</ele>
        <time>2019-07-20T19:54:08Z</time>
      </trkpt>
      <trkpt lat="51.231091959154" lon="4.467143747099">
        <ele>2.2</ele>
        <time>2019-07-20T19:54:17Z</time>
      </trkpt>
      <trkpt lat="51.230659285476" lon="4.467322700664">
        <ele>2</ele>
        <time>2019-07-20T19:55:01Z</time>
      </trkpt>
      <trkpt lat="51.230638414545" lon="4.467331166383">
        <ele>1.8</ele>
        <time>2019-07-20T19:55:03Z</time>
      </trkpt>
      <trkpt lat="51.230226611798" lon="4.467469551552">
        <ele>0.4</ele>
        <time>2019-07-20T19:55:41Z</time>
      </trkpt>
      <trkpt lat="51.229949422365" lon="4.467542976996">
        <ele>1.2</ele>
        <time>2019-07-20T19:56:06Z</time>
      </trkpt>
      <trkpt lat="51.229503253828" lon="4.467689744065">
        <ele>3.4</ele>
        <time>2019-07-20T19:56:44Z</time>
      </trkpt>
      <trkpt lat="51.229493782281" lon="4.467692174816">
        <ele>3.4</ele>
        <time>2019-07-20T19:56:45Z</time>
      </trkpt>
      <trkpt lat="51.229470480599" lon="4.467683373821">
        <ele>3.4</ele>
        <time>2019-07-20T19:56:51Z</time>
      </trkpt>
      <trkpt lat="51.229133025305" lon="4.467659820682">
        <ele>4</ele>
        <time>2019-07-20T19:57:19Z</time>
      </trkpt>
      <trkpt lat="51.229081057525" lon="4.468116550413">
        <ele>4.8</ele>
        <time>2019-07-20T19:57:42Z</time>
      </trkpt>
      <trkpt lat="51.22895239536" lon="4.468342526437">
        <ele>3.8</ele>
        <time>2019-07-20T19:57:56Z</time>
      </trkpt>
      <trkpt lat="51.228935799198" lon="4.468586607365">
        <ele>4.6</ele>
        <time>2019-07-20T19:58:09Z</time>
      </trkpt>
      <trkpt lat="51.228988186073" lon="4.468735469909">
        <ele>6.4</ele>
        <time>2019-07-20T19:58:17Z</time>
      </trkpt>
      <trkpt lat="51.228980810001" lon="4.468793472657">
        <ele>6.6</ele>
        <time>2019-07-20T19:58:20Z</time>
      </trkpt>
      <trkpt lat="51.228918364846" lon="4.468900677158">
        <ele>7.4</ele>
        <time>2019-07-20T19:58:29Z</time>
      </trkpt>
      <trkpt lat="51.228485439711" lon="4.46898265214">
        <ele>3.2</ele>
        <time>2019-07-20T19:59:02Z</time>
      </trkpt>
      <trkpt lat="51.228354179157" lon="4.469126234087">
        <ele>4.4</ele>
        <time>2019-07-20T19:59:21Z</time>
      </trkpt>
      <trkpt lat="51.228604630329" lon="4.469721265168">
        <ele>8.8</ele>
        <time>2019-07-20T19:59:55Z</time>
      </trkpt>
      <trkpt lat="51.228799425685" lon="4.47011923778">
        <ele>10.2</ele>
        <time>2019-07-20T20:00:25Z</time>
      </trkpt>
      <trkpt lat="51.228831947457" lon="4.470328198547">
        <ele>8.6</ele>
        <time>2019-07-20T20:00:38Z</time>
      </trkpt>
      <trkpt lat="51.229044512441" lon="4.470791214703">
        <ele>4.8</ele>
        <time>2019-07-20T20:01:16Z</time>
      </trkpt>
      <trkpt lat="51.229179628669" lon="4.47112758035">
        <ele>5.6</ele>
        <time>2019-07-20T20:01:50Z</time>
      </trkpt>
      <trkpt lat="51.229416417344" lon="4.471703668337">
        <ele>4.2</ele>
        <time>2019-07-20T20:02:45Z</time>
      </trkpt>
      <trkpt lat="51.229393199481" lon="4.472055121404">
        <ele>6.6</ele>
        <time>2019-07-20T20:03:15Z</time>
      </trkpt>
      <trkpt lat="51.229169821846" lon="4.471964010151">
        <ele>4.4</ele>
        <time>2019-07-20T20:03:34Z</time>
      </trkpt>
      <trkpt lat="51.229154566788" lon="4.471939199727">
        <ele>5</ele>
        <time>2019-07-20T20:03:36Z</time>
      </trkpt>
      <trkpt lat="51.228978965983" lon="4.471654298946">
        <ele>4.6</ele>
        <time>2019-07-20T20:04:00Z</time>
      </trkpt>
      <trkpt lat="51.228880562477" lon="4.4714502835">
        <ele>4.2</ele>
        <time>2019-07-20T20:04:13Z</time>
      </trkpt>
      <trkpt lat="51.228805963567" lon="4.471266216976">
        <ele>0</ele>
        <time>2019-07-20T20:04:24Z</time>
      </trkpt>
      <trkpt lat="51.228526008107" lon="4.470702701839">
        <ele>0</ele>
        <time>2019-07-20T20:05:00Z</time>
      </trkpt>
      <trkpt lat="51.22850899285" lon="4.470644866729">
        <ele>0</ele>
        <time>2019-07-20T20:05:06Z</time>
      </trkpt>
      <trkpt lat="51.228471106662" lon="4.470582253936">
        <ele>0</ele>
        <time>2019-07-20T20:05:14Z</time>
      </trkpt>
      <trkpt lat="51.228433304293" lon="4.470397265403">
        <ele>0</ele>
        <time>2019-07-20T20:05:27Z</time>
      </trkpt>
      <trkpt lat="51.228309587449" lon="4.470033490943">
        <ele>1</ele>
        <time>2019-07-20T20:05:53Z</time>
      </trkpt>
      <trkpt lat="51.228178997447" lon="4.469740878814">
        <ele>1.4</ele>
        <time>2019-07-20T20:06:11Z</time>
      </trkpt>
      <trkpt lat="51.228097357741" lon="4.469633506675">
        <ele>0</ele>
        <time>2019-07-20T20:06:21Z</time>
      </trkpt>
      <trkpt lat="51.228033990577" lon="4.469517249722">
        <ele>0</ele>
        <time>2019-07-20T20:06:29Z</time>
      </trkpt>
      <trkpt lat="51.227965678092" lon="4.469366710798">
        <ele>0</ele>
        <time>2019-07-20T20:06:42Z</time>
      </trkpt>
      <trkpt lat="51.227930977026" lon="4.469271408595">
        <ele>0</ele>
        <time>2019-07-20T20:06:50Z</time>
      </trkpt>
      <trkpt lat="51.227704749545" lon="4.469034787558">
        <ele>2.6</ele>
        <time>2019-07-20T20:07:33Z</time>
      </trkpt>
      <trkpt lat="51.227612213369" lon="4.469046438399">
        <ele>1.4</ele>
        <time>2019-07-20T20:07:43Z</time>
      </trkpt>
      <trkpt lat="51.227578350493" lon="4.469026321839">
        <ele>2.4</ele>
        <time>2019-07-20T20:08:11Z</time>
      </trkpt>
      <trkpt lat="51.227809355657" lon="4.468922218641">
        <ele>0</ele>
        <time>2019-07-20T20:08:36Z</time>
      </trkpt>
      <trkpt lat="51.227878506332" lon="4.468881985521">
        <ele>0</ele>
        <time>2019-07-20T20:08:47Z</time>
      </trkpt>
      <trkpt lat="51.227873980106" lon="4.468834879243">
        <ele>0</ele>
        <time>2019-07-20T20:08:51Z</time>
      </trkpt>
      <trkpt lat="51.227672143954" lon="4.468186036364">
        <ele>0</ele>
        <time>2019-07-20T20:09:36Z</time>
      </trkpt>
      <trkpt lat="51.22765655362" lon="4.468132056928">
        <ele>0</ele>
        <time>2019-07-20T20:09:47Z</time>
      </trkpt>
      <trkpt lat="51.227551109318" lon="4.467418338143">
        <ele>4.6</ele>
        <time>2019-07-20T20:10:29Z</time>
      </trkpt>
      <trkpt lat="51.227386237345" lon="4.466835628455">
        <ele>2.8</ele>
        <time>2019-07-20T20:11:03Z</time>
      </trkpt>
      <trkpt lat="51.227386069707" lon="4.466735883845">
        <ele>5.8</ele>
        <time>2019-07-20T20:11:12Z</time>
      </trkpt>
      <trkpt lat="51.227351033365" lon="4.466689615757">
        <ele>5.8</ele>
        <time>2019-07-20T20:11:17Z</time>
      </trkpt>
      <trkpt lat="51.227328150778" lon="4.466572185338">
        <ele>8.8</ele>
        <time>2019-07-20T20:11:28Z</time>
      </trkpt>
      <trkpt lat="51.227304597639" lon="4.466416868731">
        <ele>9.8</ele>
        <time>2019-07-20T20:11:37Z</time>
      </trkpt>
      <trkpt lat="51.227364612043" lon="4.466324584012">
        <ele>10</ele>
        <time>2019-07-20T20:11:44Z</time>
      </trkpt>
      <trkpt lat="51.227445581197" lon="4.466320979795">
        <ele>10.4</ele>
        <time>2019-07-20T20:11:56Z</time>
      </trkpt>
      <trkpt lat="51.227565358548" lon="4.466425250631">
        <ele>8.4</ele>
        <time>2019-07-20T20:12:06Z</time>
      </trkpt>
      <trkpt lat="51.227720088422" lon="4.466478894791">
        <ele>10.8</ele>
        <time>2019-07-20T20:12:26Z</time>
      </trkpt>
      <trkpt lat="51.227866184939" lon="4.466291726964">
        <ele>4</ele>
        <time>2019-07-20T20:12:48Z</time>
      </trkpt>
      <trkpt lat="51.228256194746" lon="4.465924432106">
        <ele>5.4</ele>
        <time>2019-07-20T20:13:22Z</time>
      </trkpt>
      <trkpt lat="51.22857269529" lon="4.465447921091">
        <ele>1</ele>
        <time>2019-07-20T20:13:59Z</time>
      </trkpt>
      <trkpt lat="51.228571186548" lon="4.465429732368">
        <ele>0.4</ele>
        <time>2019-07-20T20:14:00Z</time>
      </trkpt>
      <trkpt lat="51.228557356413" lon="4.465353540897">
        <ele>0</ele>
        <time>2019-07-20T20:14:06Z</time>
      </trkpt>
      <trkpt lat="51.228551153807" lon="4.464634625334">
        <ele>2.6</ele>
        <time>2019-07-20T20:14:42Z</time>
      </trkpt>
      <trkpt lat="51.22857688624" lon="4.464205891149">
        <ele>2.6</ele>
        <time>2019-07-20T20:15:15Z</time>
      </trkpt>
      <trkpt lat="51.228501532959" lon="4.463821748672">
        <ele>2</ele>
        <time>2019-07-20T20:15:35Z</time>
      </trkpt>
      <trkpt lat="51.228459874916" lon="4.463547409085">
        <ele>0.8</ele>
        <time>2019-07-20T20:15:51Z</time>
      </trkpt>
      <trkpt lat="51.228097106284" lon="4.463171899965">
        <ele>20.4</ele>
        <time>2019-07-20T20:16:57Z</time>
      </trkpt>
      <trkpt lat="51.228031559826" lon="4.463185059548">
        <ele>16.8</ele>
        <time>2019-07-20T20:17:02Z</time>
      </trkpt>
      <trkpt lat="51.227898958168" lon="4.463083387101">
        <ele>13</ele>
        <time>2019-07-20T20:17:15Z</time>
      </trkpt>
      <trkpt lat="51.227850091691" lon="4.462897895654">
        <ele>12.8</ele>
        <time>2019-07-20T20:17:28Z</time>
      </trkpt>
      <trkpt lat="51.227838608488" lon="4.462276042493">
        <ele>14</ele>
        <time>2019-07-20T20:18:10Z</time>
      </trkpt>
      <trkpt lat="51.227792256581" lon="4.461777989995">
        <ele>10.4</ele>
        <time>2019-07-20T20:18:53Z</time>
      </trkpt>
      <trkpt lat="51.227801057576" lon="4.461280943325">
        <ele>6.6</ele>
        <time>2019-07-20T20:19:27Z</time>
      </trkpt>
      <trkpt lat="51.227793765323" lon="4.461226460975">
        <ele>6.4</ele>
        <time>2019-07-20T20:19:32Z</time>
      </trkpt>
      <trkpt lat="51.227729559969" lon="4.460815915513">
        <ele>0</ele>
        <time>2019-07-20T20:20:12Z</time>
      </trkpt>
      <trkpt lat="51.22763643706" lon="4.460778783696">
        <ele>3.8</ele>
        <time>2019-07-20T20:20:26Z</time>
      </trkpt>
      <trkpt lat="51.227438037487" lon="4.460893028993">
        <ele>7.4</ele>
        <time>2019-07-20T20:21:02Z</time>
      </trkpt>
      <trkpt lat="51.227387746087" lon="4.460831338209">
        <ele>5.8</ele>
        <time>2019-07-20T20:21:09Z</time>
      </trkpt>
      <trkpt lat="51.227236871887" lon="4.460157852544">
        <ele>2.8</ele>
        <time>2019-07-20T20:21:54Z</time>
      </trkpt>
      <trkpt lat="51.227069736801" lon="4.459490318028">
        <ele>1.8</ele>
        <time>2019-07-20T20:22:34Z</time>
      </trkpt>
      <trkpt lat="51.227048530594" lon="4.459102236058">
        <ele>3</ele>
        <time>2019-07-20T20:23:00Z</time>
      </trkpt>
      <trkpt lat="51.227497800434" lon="4.458920516466">
        <ele>21</ele>
        <time>2019-07-20T20:23:54Z</time>
      </trkpt>
      <trkpt lat="51.227914297045" lon="4.458657492444">
        <ele>18.4</ele>
        <time>2019-07-20T20:24:46Z</time>
      </trkpt>
      <trkpt lat="51.227928713913" lon="4.458647853259">
        <ele>18.8</ele>
        <time>2019-07-20T20:24:47Z</time>
      </trkpt>
      <trkpt lat="51.228347808913" lon="4.45839463606">
        <ele>17.2</ele>
        <time>2019-07-20T20:25:26Z</time>
      </trkpt>
      <trkpt lat="51.228631787685" lon="4.458183915094">
        <ele>1.4</ele>
        <time>2019-07-20T20:25:55Z</time>
      </trkpt>
      <trkpt lat="51.229080554611" lon="4.458088277615">
        <ele>5.4</ele>
        <time>2019-07-20T20:26:36Z</time>
      </trkpt>
      <trkpt lat="51.229532255202" lon="4.45792944061">
        <ele>10</ele>
        <time>2019-07-20T20:27:19Z</time>
      </trkpt>
      <trkpt lat="51.229854706895" lon="4.457932290456">
        <ele>6.4</ele>
        <time>2019-07-20T20:27:55Z</time>
      </trkpt>
      <trkpt lat="51.229773402465" lon="4.457972104481">
        <ele>6.6</ele>
        <time>2019-07-20T20:28:07Z</time>
      </trkpt>
      <trkpt lat="51.22970508998" lon="4.457997250181">
        <ele>6.2</ele>
        <time>2019-07-20T20:28:15Z</time>
      </trkpt>
    </trkseg>
  </trk>
</gpx>